Carlos Ibañez

Chefscout - Osasuna
10 Sep 2028
Sonntag
Verarbeitung

Persönlichkeit

Anpassungsfähigkeit (1) Ehrgeiz (7) Kontroverse (18) Loyalität (14) Druck (12) Professionalität (19) Fairness (18) Temperament (19)

Profil

Trainerstil Demokratisch
Lizenz Kontinentale Pro
Entschlossenheit 7
Menschenführung 10
Motivation 10
Disziplin 11
Arbeitszufriedenheit
100%
Ermüdung
0%
Rolle Chefscout
Gehalt 52.4K p/W
Vertrag 14.03.2030

Leistung

Verhalten Gut
Trainingseffektivität
50%
Spielerentwicklung
60%
Verletzungsprävention
40%
Taktische Umsetzung
45%

Letzte Ereignisse

Nahm an einer Scouting-Besprechung teil jetzt
Empfahl ein Transferziel jetzt
Empfahl ein Transferziel jetzt
Nahm an einer Scouting-Besprechung teil 7T her
Empfahl ein Transferziel 7T her
Empfahl ein Transferziel 7T her
Nahm an einer Scouting-Besprechung teil 7T her
Spiel beobachtet 7T her

Aktuell beobachtet

153
Spieler Verein Status Fähigkeit Vertrauen Beobachtet Zuletzt beobachtet Letzte Stimme
Adam Jakobsen Castellón Verloren 126 / 122 93% 1 14.08.2028 Befürworten
Luis Otávio Orlando City Aktiv 113 / 124 40% 2 07.08.2028 -
Alessio Insignito Spezia Aktiv 107 / 110 40% 1 07.08.2028 -
Antonio Puertas Albacete Verloren 132 / 122 90% 1 31.07.2028 Befürworten
Trey Nyoni Rotherham United Aktiv 144 / 148 40% 6 24.07.2028 -
Mirza Ćatović VfB Stuttgart Verloren 127 / 124 40% 2 17.07.2028 -
Federico Matarán Giana Erminio Aktiv 105 / 119 40% 1 17.07.2028 -
José Arnáiz Granada Verloren 132 / 127 90% 1 10.07.2028 Befürworten
Stanislav Coufal Pribram Aktiv 99 / 122 40% 1 10.07.2028 -
Ayden Heaven Portsmouth Aktiv 147 / 155 40% 5 03.07.2028 -
Tobías Ramírez River Plate Aktiv 129 / 130 40% 1 03.07.2028 -
Pau Cubarsí Real Sociedad Aktiv 161 / 163 40% 8 26.06.2028 -
Tobías Ramírez River Plate Verloren 128 / 132 40% 1 26.06.2028 -
Marc Bernal Sevilla Aktiv 150 / 157 40% 7 19.06.2028 -
Christos Mouzakitis Hull City Aktiv 138 / 149 40% 4 19.06.2028 -
Rubén Sobrino Cultural Leonesa Verloren 122 / 129 90% 1 06.06.2028 -
Honest Ahanor Atalanta Aktiv 136 / 146 40% 4 31.05.2028 -
Josh Nichols Oldham Athletic Aktiv 121 / 132 40% 4 31.05.2028 -
Kiani Inge Groningen Aktiv 111 / 116 40% 1 31.05.2028 -
Luca Meirelles Kudrivka Aktiv 121 / 121 40% 1 03.01.2028 -
Juan Manuel Villalba Tigre Aktiv 123 / 130 40% 4 31.12.2027 -
Nazareno Roselli Defensa y Justicia Aktiv 111 / 123 40% 4 29.12.2027 -
Alejandro Almaraz NK Celje Aktiv 114 / 105 40% 3 28.12.2027 -
Victor Froholdt Porto Aktiv 152 / 158 40% 4 28.12.2027 -
Lucas Høgsberg RC Strasbourg Aktiv 142 / 147 40% 4 27.12.2027 -
Victor Hernandez Santa Fe Aktiv 120 / 134 40% 15 26.12.2027 -
Hugo Rojas Instituto Aktiv 108 / 111 40% 3 26.12.2027 -
Izan Merino Málaga Aktiv 132 / 132 40% 6 23.12.2027 -
Josh Acheampong Everton Aktiv 144 / 143 40% 2 23.12.2027 -
Kauã Moraes Flamengo Aktiv 134 / 126 40% 5 20.12.2027 -
Jorge Salinas Racing Santander Aktiv 132 / 127 40% 3 15.12.2027 -
Celías Ingenthron Platense Aktiv 117 / 128 40% 4 13.12.2027 -
Héctor Fort Real Sociedad Aktiv 138 / 138 40% 6 12.12.2027 -
Matias Siltanen Malmo FF Aktiv 125 / 121 40% 2 10.12.2027 -
Esquerdinha Notts County Aktiv 122 / 129 40% 3 07.12.2027 -
Archie Gray Southampton Aktiv 152 / 155 40% 5 05.12.2027 -
Agustín Obregón River Plate Aktiv 110 / 119 40% 2 01.12.2027 -
Matteo Pérez Vinlöf Dinamo Zagreb Aktiv 122 / 134 40% 2 30.11.2027 -
Agustín Medina Lanús Aktiv 121 / 134 40% 3 23.11.2027 -
Adrian Skogmar Malmo FF Aktiv 113 / 114 40% 3 17.11.2027 -
Hugo Lamy Elche Aktiv 101 / 104 30% 1 / 1m 03.11.2027 -
Caleb Yirenkyi Coventry City Aktiv 139 / 145 40% 5 02.11.2027 -
Giovanni Leoni Lincoln City Aktiv 136 / 142 40% 1 02.11.2027 -
Ulises Giménez River Plate Aktiv 107 / 126 40% 4 10.10.2027 -
Enzo Cardozo Al-Nassr Aktiv 111 / 126 40% 1 10.10.2027 -
Valente Pierani Estudiantes Aktiv 110 / 116 40% 1 24.09.2027 -
Mbekezeli Mbokazi Chicago Fire Aktiv 133 / 131 40% 2 12.09.2027 -
Lucas Bergvall Tottenham Aktiv 153 / 160 40% 3 08.09.2027 -
José Cavadia Aguilas Doradas Aktiv 102 / 112 40% 1 07.09.2027 -
Gustavo Albarracín Alavés Aktiv 120 / 125 40% 1 16.08.2027 -
Gianluca Prestianni Benfica Aktiv 139 / 145 40% 6 03.06.2027 -
Jan Virgili Club Brugge Aktiv 134 / 132 40% 7 03.06.2027 -
Gorka Gorosabel Real Sociedad Aktiv 109 / 115 40% 6 28.05.2027 -
Gessime Yassine RC Strasbourg Aktiv 119 / 132 40% 1 28.05.2027 -
Yael Padilla Tijuana Aktiv 107 / 119 40% 8 24.05.2027 -
Kirill Glebov CSKA Moscow Aktiv 124 / 121 40% 10 23.05.2027 -
Jonathan Asp-Jensen Deportivo La Coruña Aktiv 118 / 117 40% 6 23.05.2027 -
Othmane Maamma Watford Aktiv 127 / 130 40% 5 21.05.2027 -
William Gomes Porto Aktiv 144 / 143 40% 3 20.05.2027 -
Riley Owen Stevenage Aktiv 101 / 103 40% 1 20.05.2027 -
Mohamadou Kanté Crawley Town Aktiv 119 / 126 40% 8 19.05.2027 -
Gomolemo Kekana Maritzburg United Aktiv 102 / 118 40% 1 19.05.2027 -
Samir El Mourabet RC Strasbourg Aktiv 125 / 131 40% 2 16.05.2027 -
Romelle Donovan Brentford Aktiv 124 / 126 40% 4 12.05.2027 -
Yussif Saidu Zaragoza Aktiv 123 / 120 40% 2 12.05.2027 -
Leo Castledine Middlesbrough Aktiv 130 / 135 40% 5 11.05.2027 -
Louis Leroux FC Nantes Aktiv 127 / 123 40% 1 10.05.2027 -
Rafael Moreno Atletico Venezuela Aktiv 107 / 105 40% 1 10.05.2027 -
Lander Astiazarán Real Sociedad Aktiv 105 / 120 40% 2 09.05.2027 -
Sindre Walle Egeli Udinese Aktiv 128 / 133 40% 5 06.05.2027 -
Ethan Williams Peterborough United Aktiv 116 / 121 40% 4 05.05.2027 -
Mateus Mané Burnley Aktiv 137 / 148 40% 2 04.05.2027 -
Olívio Tomé Benfica Aktiv 113 / 107 40% 3 02.05.2027 -
Chemsdine Talbi Sunderland Aktiv 141 / 142 40% 8 29.04.2027 -
Lovro Zvonarek Estrela da Amadora Aktiv 123 / 123 40% 2 24.04.2027 -
Mathys Tel Tottenham Aktiv 142 / 151 40% 3 20.04.2027 -
Nestory Irankunda Watford Aktiv 124 / 124 40% 1 20.04.2027 -
Oscar Schwartau Norwich City Aktiv 117 / 126 40% 5 09.04.2027 -
Manu Rodríguez Gijón Aktiv 105 / 117 40% 3 05.04.2027 -
Bazoumana Touré Newcastle United Aktiv 135 / 149 40% 1 30.03.2027 -
Lucas Ferreira Shakhtar Aktiv 124 / 137 40% 1 30.03.2027 -
Rocco Vata Watford Aktiv 120 / 123 40% 3 28.03.2027 -
Luís Guilherme Sporting CP Aktiv 130 / 136 40% 1 26.03.2027 -
David Mella Deportivo La Coruña Aktiv 134 / 142 40% 2 21.03.2027 -
Malick Fofana Sunderland Aktiv 144 / 144 40% 4 19.03.2027 -
Nikolaus Wurmbrand Girona Aktiv 118 / 125 40% 1 18.03.2027 -
Antoni Milambo Brentford Aktiv 140 / 147 40% 2 17.03.2027 -
Nico O'Reilly Manchester City Aktiv 154 / 151 40% 5 10.03.2027 -
Yusi Alavés Aktiv 124 / 135 40% 2 06.03.2027 -
Veljko Radosavljević Cukaricki Aktiv 110 / 92 40% 1 23.02.2027 -
Tibe De Vlieger KAA Gent Aktiv 101 / 111 40% 3 18.02.2027 -
Dehmaine Tabibou FC Nantes Aktiv 121 / 125 40% 1 14.02.2027 -
Martin Gjorgievski Zbrojovka Brno Aktiv 116 / 119 40% 1 13.02.2027 -
Andrés Martín Racing Santander Aktiv 136 / 135 40% 6 25.01.2027 -
Troy Parrott Betis Aktiv 136 / 134 40% 2 25.01.2027 -
Jorge De Frutos Rayo Vallecano Aktiv 155 / 143 40% 1 25.01.2027 -
Omar El Hilali Espanyol Aktiv 148 / 145 40% 1 11.01.2027 -
Marvin Keller Chelsea Aktiv 136 / 137 67% 1 01.01.2027 Befürworten
Stanislav Agkatsev Brentford Aktiv 132 / 133 66% 1 01.01.2027 Befürworten
Iliman N'Diaye Everton Aktiv 154 / 165 40% 4 31.12.2026 -
Luis Caicedo Spartak 1918 Aktiv 98 / 92 40% 2 31.12.2026 -
Christantus Uche Getafe Aktiv 132 / 138 40% 3 30.12.2026 -
Chupete Málaga Aktiv 133 / 135 40% 2 29.12.2026 Mehr Infos nötig
Alexis Cuello San Lorenzo Aktiv 129 / 120 40% 1 26.12.2026 -
Diego López Valencia Aktiv 139 / 130 40% 3 25.12.2026 -
Pau Víctor Braga Aktiv 141 / 129 40% 1 24.12.2026 -
Yeremy Pino Crystal Palace Aktiv 153 / 157 40% 1 24.12.2026 -
Rodrigo Muniz Fulham Aktiv 139 / 138 40% 3 21.12.2026 -
Ricardo Pepi Mallorca Aktiv 141 / 142 40% 1 20.12.2026 -
Manu Koné AS Roma Aktiv 164 / 159 40% 1 17.12.2026 -
Abel Ruiz Girona Aktiv 138 / 142 40% 4 13.12.2026 -
Georginio Rutter Brighton Aktiv 145 / 143 40% 3 12.12.2026 -
Isaac Romero Sevilla Aktiv 138 / 146 40% 3 12.12.2026 -
Pablo Barrios Atlético Madrid Aktiv 152 / 168 40% 2 12.12.2026 -
Roberto Fernández Braga Aktiv 142 / 133 40% 3 07.12.2026 -
Lucas Varaldo Morelia Aktiv 115 / 126 40% 1 07.12.2026 -
Duk Atlas Aktiv 124 / 102 40% 2 06.12.2026 -
Peque Real Sociedad Aktiv 139 / 133 40% 2 02.12.2026 -
Mikel Jauregizar Athletic Bilbao Aktiv 161 / 161 40% 1 02.12.2026 -
James Bacca La Equidad Aktiv 122 / 132 40% 2 24.11.2026 -
Ez Abde Betis Aktiv 142 / 158 40% 1 20.11.2026 -
Álex Baena Atlético Madrid Aktiv 164 / 158 40% 1 20.11.2026 -
Alejandro Piedrahita Deportivo Pereira Aktiv 124 / 133 40% 1 18.11.2026 -
Oihan Sancet Athletic Bilbao Aktiv 160 / 157 40% 1 18.11.2026 -
Ferran Torres Paris Saint-Germain Aktiv 160 / 171 40% 1 18.11.2026 -
José Alvarado Leon Aktiv 118 / 116 40% 1 16.11.2026 -
Kyriani Sabbe Club Brugge Aktiv 125 / 126 40% 1 13.11.2026 -
Jonathan Pérez Cruz Azul Aktiv 95 / 108 40% 1 12.11.2026 -
Justo Giani Umraniyespor Aktiv 113 / 118 40% 1 10.11.2026 -
Khvicha Kvaratskhelia Paris Saint-Germain Aktiv 172 / 166 40% 1 09.11.2026 -
Kevin Fulham Aktiv 146 / 148 40% 1 09.11.2026 -
Nico Williams Athletic Bilbao Aktiv 171 / 174 40% 1 09.11.2026 -
José Ángel Carmona Sevilla Aktiv 143 / 155 40% 1 07.11.2026 -
Lautaro Vargas Unión de Santa Fe Aktiv 116 / 124 40% 2 05.11.2026 -
Alexander Díaz Deportivo Riestra Aktiv 122 / 104 40% 1 03.11.2026 -
Pau Navarro Villarreal Aktiv 136 / 147 40% 2 08.10.2026 -
Santiago Fernández Talleres Aktiv 125 / 129 40% 4 06.10.2026 -
Ignacio Ovando Rosario Central Aktiv 92 / 108 40% 1 27.09.2026 -
Alan Forneris Racing Club Aktiv 122 / 107 40% 2 23.09.2026 -
Facundo Di Biasi Gimnasia La Plata Aktiv 117 / 126 40% 1 18.09.2026 -
Gonzalo Bordón Independiente Aktiv 108 / 109 40% 1 11.09.2026 -
Ian Garguez Palestino Aktiv 100 / 104 40% 1 10.09.2026 -
Kobbie Mainoo Manchester United Aktiv 153 / 160 40% 1 08.09.2026 -
Valentín Aguiñagalde Temperley Aktiv 112 / 105 40% 1 08.09.2026 -
João Neves Paris Saint-Germain Aktiv 158 / 173 40% 1 01.09.2026 -
Léyder Morán Once Caldas Aktiv 109 / 104 40% 1 01.09.2026 -
Arthur Okonkwo Wrexham Aktiv 111 / 121 40% 1 27.08.2026 -
Gonçalo Guedes Real Sociedad Aktiv 142 / 141 40% 1 25.08.2026 -
Radek Vítek Middlesbrough Aktiv 124 / 141 40% 1 17.08.2026 -
Javi Puado Espanyol Aktiv 141 / 135 40% 1 03.08.2026 -
Mikel Oyarzábal Real Sociedad Aktiv 160 / 159 40% 1 03.08.2026 -
Ousmane Dembélé Paris Saint-Germain Aktiv 183 / 185 40% 1 01.08.2026 -
Gabriel Martinelli Arsenal Aktiv 163 / 167 40% 1 01.08.2026 -